Detall de PIREP

Printer-friendly versionPDF version

[2012/12/11 16:39:00]
Flight IATA:CT3303
Pilot Number:012
Company ICAO:CAT
Aircraft Type:B738/F
PAX:160
Departing Airport: DTTA
Destination Airport: LEZG
Alternate Airport:LEMD
Online: VATSIM
Route:TOBIB UA725 TANIT UM733 CAR UM732 GINOX UM601 BCN UN725 LOBAR
Flight Level:F360
No Slew and time accel
No pause
Crash detect
Detect pilot in Cockpit between each 30 and 45 minutes
16:39 Zero fuel Weight: 125521 Lbs, Fuel Weight: 16338 Lbs
16:39 VATSIM:DTTA 110600Z 22010KT 8000 SCT023 BKN090 11/08 Q1015 NOSIG
16:39 VATSIM:LEZG 111630Z 26007KT 9999 FEW040 08/02 Q1019
16:39 VOICE CATALONIAN
16:39 Parking Brakes off
16:51 Take-off
16:51 Take off Weight: 140352 Lbs
16:51 Wind: 311º @ 010 Knots Heading: 293º
16:51 POS N36º 51´ 05´´ E010º 13´ 37´´
16:51 Gear Up: 167 Knots
16:51 Flaps:3 at 167 Knots
16:51 Flaps:2 at 170 Knots
16:52 Flaps:0 at 207 Knots
17:06 Wind:294º@073 Knots Heading: 339º Ground Speed: 417 Knots Altitude 31561 ft
17:09 TOC
17:09 Fuel Weight: 11236 Lb
17:21 Wind:297º@062 Knots Heading: 323º Ground Speed: 401 Knots Altitude 36010 ft
17:36 Wind:304º@068 Knots Heading: 277º Ground Speed: 396 Knots Altitude 36030 ft
17:51 Wind:304º@053 Knots Heading: 281º Ground Speed: 407 Knots Altitude 36118 ft
18:06 Wind:308º@056 Knots Heading: 280º Ground Speed: 405 Knots Altitude 36181 ft
18:21 Wind:308º@058 Knots Heading: 292º Ground Speed: 393 Knots Altitude 36112 ft
18:21 TOD
18:21 Fuel Weight: 4749 Lb
18:36 Wind:278º@005 Knots Heading: 220º Ground Speed: 230 Knots Altitude 6535 ft
18:36 Flaps:1 at 207 Knots
18:36 Flaps:2 at 211 Knots
18:38 Flaps:3 at 205 Knots
18:39 Flaps:4 at 197 Knots
18:40 Gear Down: 191 Knots
18:40 Flaps:5 at 189 Knots
18:40 Flaps:6 at 158 Knots
18:41 Flaps:7 at 160 Knots
18:41 Flaps:8 at 151 Knots
18:42 TouchDown:Rate -266 ft/min Speed: 120 Knots
18:42 VATSIM:LEZG 111830Z 28007KT CAVOK 06/02 Q1019
18:42 Land
18:42 Wind:293º@010 Knots
18:42 Heading: 299º
18:42 Flight Duration: 01:51
18:42 Landing Weight: 129340 Lbs
18:42 POS N41º 39´ 40´´ W001º 01´ 19´´
18:44 Parking brakes on
18:44 Block to Block Duration: 02:05
18:44 Final Fuel: 3619 Lbls
18:44 Spent Fuel: 12718 Lbls
18:44 Flight Length: 690 NM
18:44 TOD Land Length: 101 NM

Exportar CSV

Powered by Drupal - Modified by Danger4k